K.garnet — 3EVU4 — position and weather

sailwx.info

Track history (hours):
 
Tides and Currents Weather Stations Pressure Air Temp Water Temp Dewpoint Dewpoint Depression Visibility Wind Speed Wind Dir Waves Ship Positions

K.garnet

Last reported at 2017-Sep-05 00:18 UTC. Time now 2017-Sep-22 08:13 UTC.
Position N 08°59' W 079°35'.
Warning: this ship's position is 17 days out of date.

Length 190 m; draft 12 m.

Type: Cargo ship. MMSI: 354294000.

Date/timePositionNaut miles runAvg speedWind from/ knotsBaromVisibWave heightAir tempDewpointWater temp
2017-Sep-05 00:18N 08°59' W 079°35'2 1.1
2017-Sep-04 22:26N 09°01' W 079°37'5 5.5
2017-Sep-04 21:36N 09°04' W 079°40'2 7.5
2017-Sep-04 21:22N 09°05' W 079°41'4 6.6
2017-Sep-04 20:44N 09°07' W 079°45'3 8.6
2017-Sep-04 20:22N 09°07' W 079°48'5 8.2
2017-Sep-04 19:44N 09°11' W 079°52'2 9.0
2017-Sep-04 19:28N 09°12' W 079°54'2 5.0
2017-Sep-04 19:00N 09°13' W 079°56'0 0.3
2017-Sep-04 18:30N 09°13' W 079°56'0 0.0
2017-Sep-04 17:57N 09°13' W 079°56'0 0.0
2017-Sep-04 17:27N 09°13' W 079°56'0 0.0
2017-Sep-04 17:00N 09°13' W 079°56'0 0.0
2017-Sep-04 16:30N 09°13' W 079°56'0 0.1
2017-Sep-04 16:00N 09°13' W 079°56'0 0.1
2017-Sep-04 15:30N 09°13' W 079°56'0 0.1
2017-Sep-04 15:00N 09°13' W 079°56'0 0.0
2017-Sep-04 14:30N 09°13' W 079°56'0 0.0
2017-Sep-04 14:00N 09°13' W 079°56'0 0.0
2017-Sep-04 13:30N 09°13' W 079°56'0 0.0
2017-Sep-04 13:00N 09°13' W 079°56'0 0.0
2017-Sep-04 12:30N 09°13' W 079°56'0 0.0
2017-Sep-04 12:00N 09°13' W 079°56'0 0.0
2017-Sep-04 11:30N 09°13' W 079°56'0 0.1
2017-Sep-04 11:00N 09°13' W 079°56'0 0.0
2017-Sep-04 10:30N 09°13' W 079°56'0 0.0
2017-Sep-04 10:00N 09°13' W 079°56'0 0.0
2017-Sep-04 09:30N 09°13' W 079°56'0 0.0
2017-Sep-04 09:00N 09°13' W 079°56'0 0.0
2017-Sep-04 08:30N 09°13' W 079°56'0 0.0
2017-Sep-04 08:00N 09°13' W 079°56'0 0.0
2017-Sep-04 07:30N 09°13' W 079°56'1 2.3
2017-Sep-04 07:00N 09°14' W 079°55'2 4.4
2017-Sep-04 06:30N 09°16' W 079°55'0 0.7
2017-Sep-04 06:00N 09°16' W 079°55'0 0.4
2017-Sep-04 05:30N 09°17' W 079°55'0 0.5
2017-Sep-04 05:00N 09°17' W 079°55'1 2.2
2017-Sep-04 04:30N 09°18' W 079°55'4 7.6
2017-Sep-04 04:00N 09°22' W 079°55'1 2.4
2017-Sep-04 03:30N 09°23' W 079°56'0 0.0
2017-Sep-04 03:00N 09°23' W 079°56'0 0.0
2017-Sep-04 02:30N 09°23' W 079°56'0 0.0
2017-Sep-04 02:00N 09°23' W 079°56'0 0.0
2017-Sep-04 01:30N 09°23' W 079°56'0 0.0
2017-Sep-04 01:00N 09°23' W 079°56'0 0.0
2017-Sep-04 00:30N 09°23' W 079°56'0 0.0
2017-Sep-04 00:00N 09°23' W 079°56'0 0.0
2017-Sep-03 23:30N 09°23' W 079°56'0 0.0
2017-Sep-03 23:00N 09°23' W 079°56'0 0.0
2017-Sep-03 22:30N 09°23' W 079°56'0 0.0
2017-Sep-03 22:00N 09°23' W 079°56'0 0.0
2017-Sep-03 21:30N 09°23' W 079°56'0 0.1
2017-Sep-03 21:00N 09°23' W 079°56'0 0.1
2017-Sep-03 20:30N 09°23' W 079°56'0 0.1
2017-Sep-03 20:00N 09°23' W 079°56'0 0.1
2017-Sep-03 19:30N 09°23' W 079°56'0 0.2
2017-Sep-03 19:00N 09°23' W 079°56'0 0.2
2017-Sep-03 18:30N 09°23' W 079°56'0 0.1
2017-Sep-03 18:00N 09°23' W 079°56'0 0.1
2017-Sep-03 17:30N 09°23' W 079°56'0 0.1
2017-Sep-03 17:00N 09°23' W 079°56'0 0.0
2017-Sep-03 16:30N 09°23' W 079°56'0 0.0
2017-Sep-03 16:00N 09°23' W 079°56'0 0.0
2017-Sep-03 15:30N 09°23' W 079°56'0 0.0
2017-Sep-03 15:00N 09°23' W 079°56'0 0.0
2017-Sep-03 14:00N 09°23' W 079°56'0 0.5
2017-Sep-03 13:31N 09°23' W 079°56'0 0.3
2017-Sep-03 13:00N 09°23' W 079°55'1 2.9
2017-Sep-03 12:30N 09°24' W 079°55'1 2.6
2017-Sep-03 12:00N 09°25' W 079°56'0 0.2
2017-Sep-03 11:30N 09°25' W 079°56'0 0.1
2017-Sep-03 11:00N 09°25' W 079°56'0 0.0
2017-Sep-03 10:30N 09°25' W 079°56'0 0.0
2017-Sep-03 10:00N 09°25' W 079°56'0 0.0
2017-Sep-03 09:30N 09°25' W 079°56'0 0.0
2017-Sep-03 09:00N 09°25' W 079°56'0 0.0
2017-Sep-03 08:30N 09°25' W 079°56'0 0.0
2017-Sep-03 08:00N 09°25' W 079°56'0 0.0
2017-Sep-03 07:30N 09°25' W 079°56'0 0.0
2017-Sep-03 07:00N 09°25' W 079°56'0 0.0
2017-Sep-03 06:30N 09°25' W 079°56'0 0.0
2017-Sep-03 06:00N 09°25' W 079°56'0 0.0
2017-Sep-03 05:30N 09°25' W 079°56'0 0.0
2017-Sep-03 05:00N 09°25' W 079°56'0 0.0
2017-Sep-03 04:30N 09°25' W 079°56'0 0.0
2017-Sep-03 04:00N 09°25' W 079°56'0 0.0
2017-Sep-03 03:30N 09°25' W 079°56'0 0.0
2017-Sep-03 03:00N 09°25' W 079°56'0 0.0
2017-Sep-03 02:30N 09°25' W 079°56'0 0.0
2017-Sep-03 02:00N 09°25' W 079°56'0 0.0
2017-Sep-03 01:30N 09°25' W 079°56'0 0.0
2017-Sep-03 01:00N 09°25' W 079°56'0 0.0
2017-Sep-03 00:30N 09°25' W 079°56'0 0.0
2017-Sep-03 00:00N 09°25' W 079°56'0 0.0
2017-Sep-02 23:30N 09°25' W 079°56'0 0.0
2017-Sep-02 23:00N 09°25' W 079°56'0 0.1
2017-Sep-02 22:30N 09°25' W 079°56'0 0.1
2017-Sep-02 22:00N 09°25' W 079°56'0 0.0
2017-Sep-02 21:30N 09°25' W 079°56'0 0.0
2017-Sep-02 21:00N 09°25' W 079°56'0 0.0
2017-Sep-02 20:30N 09°25' W 079°56'0 0.0
2017-Sep-02 20:00N 09°25' W 079°56'0 0.0
2017-Sep-02 19:30N 09°25' W 079°56'0 0.0
2017-Sep-02 19:00N 09°25' W 079°56'0 0.0
2017-Sep-02 18:30N 09°25' W 079°56'0 0.0
2017-Sep-02 18:00N 09°25' W 079°56'0 0.0
2017-Sep-02 17:30N 09°25' W 079°56'0 0.0
2017-Sep-02 17:00N 09°25' W 079°56'0 0.0
2017-Sep-02 16:30N 09°25' W 079°56'0 0.0
2017-Sep-02 16:00N 09°25' W 079°56'0 0.0
2017-Sep-02 15:30N 09°25' W 079°56'0 0.0
2017-Sep-02 15:00N 09°25' W 079°56'0 0.0
2017-Sep-02 14:30N 09°25' W 079°56'0 0.0
2017-Sep-02 14:00N 09°25' W 079°56'0 0.0
2017-Sep-02 13:30N 09°25' W 079°56'0 0.0
2017-Sep-02 13:00N 09°25' W 079°56'0 0.0
2017-Sep-02 12:30N 09°25' W 079°56'0 0.0
2017-Sep-02 12:00N 09°25' W 079°56'0 0.0
2017-Sep-02 11:30N 09°25' W 079°56'0 0.0
2017-Sep-02 11:00N 09°25' W 079°56'0 0.0
2017-Sep-02 10:27N 09°25' W 079°56'0 0.0
2017-Sep-02 10:00N 09°25' W 079°56'0 0.0
2017-Sep-02 09:30N 09°25' W 079°56'0 0.0
2017-Sep-02 09:00N 09°25' W 079°56'0 0.0
2017-Sep-02 08:30N 09°25' W 079°56'0 0.0
2017-Sep-02 08:00N 09°25' W 079°56'0 0.0
2017-Sep-02 07:30N 09°25' W 079°56'0 0.0
2017-Sep-02 07:00N 09°25' W 079°56'0 0.0
2017-Sep-02 06:30N 09°25' W 079°56'0 0.0
2017-Sep-02 06:00N 09°25' W 079°56'0 0.0
2017-Sep-02 05:30N 09°25' W 079°56'0 0.0
2017-Sep-02 05:00N 09°25' W 079°56'0 0.0
2017-Sep-02 04:30N 09°25' W 079°56'0 0.0
2017-Sep-02 04:00N 09°25' W 079°56'0 0.0
2017-Sep-02 03:30N 09°25' W 079°56'0 0.0
2017-Sep-02 03:00N 09°25' W 079°56'0 0.0
2017-Sep-02 02:30N 09°25' W 079°56'0 0.0
2017-Sep-02 02:00N 09°25' W 079°56'0 0.0
2017-Sep-02 01:30N 09°25' W 079°56'0 0.0
2017-Sep-02 01:00N 09°25' W 079°56'0 0.0
2017-Sep-02 00:30N 09°25' W 079°56'0 0.0
2017-Sep-02 00:00N 09°25' W 079°56'0 0.0
2017-Sep-01 23:30N 09°25' W 079°56'0 0.0
2017-Sep-01 23:00N 09°25' W 079°56'0 0.0
2017-Sep-01 22:30N 09°25' W 079°56'0 0.0
2017-Sep-01 22:00N 09°25' W 079°56'0 0.0
2017-Sep-01 21:30N 09°25' W 079°56'0 0.0
2017-Sep-01 21:00N 09°25' W 079°56'0 0.0
2017-Sep-01 20:30N 09°25' W 079°56'0 0.0
2017-Sep-01 20:00N 09°25' W 079°56'0 0.0
2017-Sep-01 19:30N 09°25' W 079°56'0 0.0
2017-Sep-01 19:00N 09°25' W 079°56'0 0.0
2017-Sep-01 18:30N 09°25' W 079°56'0 0.0
2017-Sep-01 18:00N 09°25' W 079°56'0 0.0
2017-Sep-01 17:30N 09°25' W 079°56'0 0.0
2017-Sep-01 17:00N 09°25' W 079°56'0 0.0
2017-Sep-01 16:30N 09°25' W 079°56'0 0.0
2017-Sep-01 16:00N 09°25' W 079°56'0 0.0
2017-Sep-01 15:30N 09°25' W 079°56'0 0.0
2017-Sep-01 15:00N 09°25' W 079°56'0 0.0
2017-Sep-01 14:30N 09°25' W 079°56'0 0.0
2017-Sep-01 14:00N 09°25' W 079°56'0 0.0
2017-Sep-01 13:30N 09°25' W 079°56'0 0.0
2017-Sep-01 13:00N 09°25' W 079°56'0 0.0
2017-Sep-01 12:30N 09°25' W 079°56'0 0.0
2017-Sep-01 12:00N 09°25' W 079°56'0 0.0
2017-Sep-01 11:30N 09°25' W 079°56'0 0.0
2017-Sep-01 11:00N 09°25' W 079°56'0 0.0
2017-Sep-01 10:30N 09°25' W 079°56'0 0.0
2017-Sep-01 10:00N 09°25' W 079°56'0 0.0
2017-Sep-01 09:30N 09°25' W 079°56'0 0.0
2017-Sep-01 09:00N 09°25' W 079°56'0 0.0
2017-Sep-01 08:30N 09°25' W 079°56'0 0.0
2017-Sep-01 08:00N 09°25' W 079°56'0 0.0
2017-Sep-01 07:30N 09°25' W 079°56'0 0.0
2017-Sep-01 07:00N 09°25' W 079°56'0 0.1
2017-Sep-01 06:30N 09°25' W 079°56'0 0.2
2017-Sep-01 06:00N 09°25' W 079°56'2 3.4
2017-Sep-01 05:30N 09°26' W 079°55'4 7.9
2017-Sep-01 05:00N 09°30' W 079°54'510.5
2017-Sep-01 04:30N 09°35' W 079°53'  
2017-Aug-27 03:40N 29°56' W 090°22'  
Track history (hours):
 
Tides and Currents Weather Stations Pressure Air Temp Water Temp Dewpoint Dewpoint Depression Visibility Wind Speed Wind Dir Waves Ship Positions

K.garnet

Last reported at 2017-Sep-05 00:18 UTC. Time now 2017-Sep-22 08:13 UTC.
Position N 08°59' W 079°35'.
Warning: this ship's position is 17 days out of date.

Length 190 m; draft 12 m.

Type: Cargo ship. MMSI: 354294000.

Date/timePositionNaut miles runAvg speedWind from/ knotsBaromVisibWave heightAir tempDewpointWater temp
2017-Sep-05 00:18N 08°59' W 079°35'2 1.1
2017-Sep-04 22:26N 09°01' W 079°37'5 5.5
2017-Sep-04 21:36N 09°04' W 079°40'2 7.5
2017-Sep-04 21:22N 09°05' W 079°41'4 6.6
2017-Sep-04 20:44N 09°07' W 079°45'3 8.6
2017-Sep-04 20:22N 09°07' W 079°48'5 8.2
2017-Sep-04 19:44N 09°11' W 079°52'2 9.0
2017-Sep-04 19:28N 09°12' W 079°54'2 5.0
2017-Sep-04 19:00N 09°13' W 079°56'0 0.3
2017-Sep-04 18:30N 09°13' W 079°56'0 0.0
2017-Sep-04 17:57N 09°13' W 079°56'0 0.0
2017-Sep-04 17:27N 09°13' W 079°56'0 0.0
2017-Sep-04 17:00N 09°13' W 079°56'0 0.0
2017-Sep-04 16:30N 09°13' W 079°56'0 0.1
2017-Sep-04 16:00N 09°13' W 079°56'0 0.1
2017-Sep-04 15:30N 09°13' W 079°56'0 0.1
2017-Sep-04 15:00N 09°13' W 079°56'0 0.0
2017-Sep-04 14:30N 09°13' W 079°56'0 0.0
2017-Sep-04 14:00N 09°13' W 079°56'0 0.0
2017-Sep-04 13:30N 09°13' W 079°56'0 0.0
2017-Sep-04 13:00N 09°13' W 079°56'0 0.0
2017-Sep-04 12:30N 09°13' W 079°56'0 0.0
2017-Sep-04 12:00N 09°13' W 079°56'0 0.0
2017-Sep-04 11:30N 09°13' W 079°56'0 0.1
2017-Sep-04 11:00N 09°13' W 079°56'0 0.0
2017-Sep-04 10:30N 09°13' W 079°56'0 0.0
2017-Sep-04 10:00N 09°13' W 079°56'0 0.0
2017-Sep-04 09:30N 09°13' W 079°56'0 0.0
2017-Sep-04 09:00N 09°13' W 079°56'0 0.0
2017-Sep-04 08:30N 09°13' W 079°56'0 0.0
2017-Sep-04 08:00N 09°13' W 079°56'0 0.0
2017-Sep-04 07:30N 09°13' W 079°56'1 2.3
2017-Sep-04 07:00N 09°14' W 079°55'2 4.4
2017-Sep-04 06:30N 09°16' W 079°55'0 0.7
2017-Sep-04 06:00N 09°16' W 079°55'0 0.4
2017-Sep-04 05:30N 09°17' W 079°55'0 0.5
2017-Sep-04 05:00N 09°17' W 079°55'1 2.2
2017-Sep-04 04:30N 09°18' W 079°55'4 7.6
2017-Sep-04 04:00N 09°22' W 079°55'1 2.4
2017-Sep-04 03:30N 09°23' W 079°56'0 0.0
2017-Sep-04 03:00N 09°23' W 079°56'0 0.0
2017-Sep-04 02:30N 09°23' W 079°56'0 0.0
2017-Sep-04 02:00N 09°23' W 079°56'0 0.0
2017-Sep-04 01:30N 09°23' W 079°56'0 0.0
2017-Sep-04 01:00N 09°23' W 079°56'0 0.0
2017-Sep-04 00:30N 09°23' W 079°56'0 0.0
2017-Sep-04 00:00N 09°23' W 079°56'0 0.0
2017-Sep-03 23:30N 09°23' W 079°56'0 0.0
2017-Sep-03 23:00N 09°23' W 079°56'0 0.0
2017-Sep-03 22:30N 09°23' W 079°56'0 0.0
2017-Sep-03 22:00N 09°23' W 079°56'0 0.0
2017-Sep-03 21:30N 09°23' W 079°56'0 0.1
2017-Sep-03 21:00N 09°23' W 079°56'0 0.1
2017-Sep-03 20:30N 09°23' W 079°56'0 0.1
2017-Sep-03 20:00N 09°23' W 079°56'0 0.1
2017-Sep-03 19:30N 09°23' W 079°56'0 0.2
2017-Sep-03 19:00N 09°23' W 079°56'0 0.2
2017-Sep-03 18:30N 09°23' W 079°56'0 0.1
2017-Sep-03 18:00N 09°23' W 079°56'0 0.1
2017-Sep-03 17:30N 09°23' W 079°56'0 0.1
2017-Sep-03 17:00N 09°23' W 079°56'0 0.0
2017-Sep-03 16:30N 09°23' W 079°56'0 0.0
2017-Sep-03 16:00N 09°23' W 079°56'0 0.0
2017-Sep-03 15:30N 09°23' W 079°56'0 0.0
2017-Sep-03 15:00N 09°23' W 079°56'0 0.0
2017-Sep-03 14:00N 09°23' W 079°56'0 0.5
2017-Sep-03 13:31N 09°23' W 079°56'0 0.3
2017-Sep-03 13:00N 09°23' W 079°55'1 2.9
2017-Sep-03 12:30N 09°24' W 079°55'1 2.6
2017-Sep-03 12:00N 09°25' W 079°56'0 0.2
2017-Sep-03 11:30N 09°25' W 079°56'0 0.1
2017-Sep-03 11:00N 09°25' W 079°56'0 0.0
2017-Sep-03 10:30N 09°25' W 079°56'0 0.0
2017-Sep-03 10:00N 09°25' W 079°56'0 0.0
2017-Sep-03 09:30N 09°25' W 079°56'0 0.0
2017-Sep-03 09:00N 09°25' W 079°56'0 0.0
2017-Sep-03 08:30N 09°25' W 079°56'0 0.0
2017-Sep-03 08:00N 09°25' W 079°56'0 0.0
2017-Sep-03 07:30N 09°25' W 079°56'0 0.0
2017-Sep-03 07:00N 09°25' W 079°56'0 0.0
2017-Sep-03 06:30N 09°25' W 079°56'0 0.0
2017-Sep-03 06:00N 09°25' W 079°56'0 0.0
2017-Sep-03 05:30N 09°25' W 079°56'0 0.0
2017-Sep-03 05:00N 09°25' W 079°56'0 0.0
2017-Sep-03 04:30N 09°25' W 079°56'0 0.0
2017-Sep-03 04:00N 09°25' W 079°56'0 0.0
2017-Sep-03 03:30N 09°25' W 079°56'0 0.0
2017-Sep-03 03:00N 09°25' W 079°56'0 0.0
2017-Sep-03 02:30N 09°25' W 079°56'0 0.0
2017-Sep-03 02:00N 09°25' W 079°56'0 0.0
2017-Sep-03 01:30N 09°25' W 079°56'0 0.0
2017-Sep-03 01:00N 09°25' W 079°56'0 0.0
2017-Sep-03 00:30N 09°25' W 079°56'0 0.0
2017-Sep-03 00:00N 09°25' W 079°56'0 0.0
2017-Sep-02 23:30N 09°25' W 079°56'0 0.0
2017-Sep-02 23:00N 09°25' W 079°56'0 0.1
2017-Sep-02 22:30N 09°25' W 079°56'0 0.1
2017-Sep-02 22:00N 09°25' W 079°56'0 0.0
2017-Sep-02 21:30N 09°25' W 079°56'0 0.0
2017-Sep-02 21:00N 09°25' W 079°56'0 0.0
2017-Sep-02 20:30N 09°25' W 079°56'0 0.0
2017-Sep-02 20:00N 09°25' W 079°56'0 0.0
2017-Sep-02 19:30N 09°25' W 079°56'0 0.0
2017-Sep-02 19:00N 09°25' W 079°56'0 0.0
2017-Sep-02 18:30N 09°25' W 079°56'0 0.0
2017-Sep-02 18:00N 09°25' W 079°56'0 0.0
2017-Sep-02 17:30N 09°25' W 079°56'0 0.0
2017-Sep-02 17:00N 09°25' W 079°56'0 0.0
2017-Sep-02 16:30N 09°25' W 079°56'0 0.0
2017-Sep-02 16:00N 09°25' W 079°56'0 0.0
2017-Sep-02 15:30N 09°25' W 079°56'0 0.0
2017-Sep-02 15:00N 09°25' W 079°56'0 0.0
2017-Sep-02 14:30N 09°25' W 079°56'0 0.0
2017-Sep-02 14:00N 09°25' W 079°56'0 0.0
2017-Sep-02 13:30N 09°25' W 079°56'0 0.0
2017-Sep-02 13:00N 09°25' W 079°56'0 0.0
2017-Sep-02 12:30N 09°25' W 079°56'0 0.0
2017-Sep-02 12:00N 09°25' W 079°56'0 0.0
2017-Sep-02 11:30N 09°25' W 079°56'0 0.0
2017-Sep-02 11:00N 09°25' W 079°56'0 0.0
2017-Sep-02 10:27N 09°25' W 079°56'0 0.0
2017-Sep-02 10:00N 09°25' W 079°56'0 0.0
2017-Sep-02 09:30N 09°25' W 079°56'0 0.0
2017-Sep-02 09:00N 09°25' W 079°56'0 0.0
2017-Sep-02 08:30N 09°25' W 079°56'0 0.0
2017-Sep-02 08:00N 09°25' W 079°56'0 0.0
2017-Sep-02 07:30N 09°25' W 079°56'0 0.0
2017-Sep-02 07:00N 09°25' W 079°56'0 0.0
2017-Sep-02 06:30N 09°25' W 079°56'0 0.0
2017-Sep-02 06:00N 09°25' W 079°56'0 0.0
2017-Sep-02 05:30N 09°25' W 079°56'0 0.0
2017-Sep-02 05:00N 09°25' W 079°56'0 0.0
2017-Sep-02 04:30N 09°25' W 079°56'0 0.0
2017-Sep-02 04:00N 09°25' W 079°56'0 0.0
2017-Sep-02 03:30N 09°25' W 079°56'0 0.0
2017-Sep-02 03:00N 09°25' W 079°56'0 0.0
2017-Sep-02 02:30N 09°25' W 079°56'0 0.0
2017-Sep-02 02:00N 09°25' W 079°56'0 0.0
2017-Sep-02 01:30N 09°25' W 079°56'0 0.0
2017-Sep-02 01:00N 09°25' W 079°56'0 0.0
2017-Sep-02 00:30N 09°25' W 079°56'0 0.0
2017-Sep-02 00:00N 09°25' W 079°56'0 0.0
2017-Sep-01 23:30N 09°25' W 079°56'0 0.0
2017-Sep-01 23:00N 09°25' W 079°56'0 0.0
2017-Sep-01 22:30N 09°25' W 079°56'0 0.0
2017-Sep-01 22:00N 09°25' W 079°56'0 0.0
2017-Sep-01 21:30N 09°25' W 079°56'0 0.0
2017-Sep-01 21:00N 09°25' W 079°56'0 0.0
2017-Sep-01 20:30N 09°25' W 079°56'0 0.0
2017-Sep-01 20:00N 09°25' W 079°56'0 0.0
2017-Sep-01 19:30N 09°25' W 079°56'0 0.0
2017-Sep-01 19:00N 09°25' W 079°56'0 0.0
2017-Sep-01 18:30N 09°25' W 079°56'0 0.0
2017-Sep-01 18:00N 09°25' W 079°56'0 0.0
2017-Sep-01 17:30N 09°25' W 079°56'0 0.0
2017-Sep-01 17:00N 09°25' W 079°56'0 0.0
2017-Sep-01 16:30N 09°25' W 079°56'0 0.0
2017-Sep-01 16:00N 09°25' W 079°56'0 0.0
2017-Sep-01 15:30N 09°25' W 079°56'0 0.0
2017-Sep-01 15:00N 09°25' W 079°56'0 0.0
2017-Sep-01 14:30N 09°25' W 079°56'0 0.0
2017-Sep-01 14:00N 09°25' W 079°56'0 0.0
2017-Sep-01 13:30N 09°25' W 079°56'0 0.0
2017-Sep-01 13:00N 09°25' W 079°56'0 0.0
2017-Sep-01 12:30N 09°25' W 079°56'0 0.0
2017-Sep-01 12:00N 09°25' W 079°56'0 0.0
2017-Sep-01 11:30N 09°25' W 079°56'0 0.0
2017-Sep-01 11:00N 09°25' W 079°56'0 0.0
2017-Sep-01 10:30N 09°25' W 079°56'0 0.0
2017-Sep-01 10:00N 09°25' W 079°56'0 0.0
2017-Sep-01 09:30N 09°25' W 079°56'0 0.0
2017-Sep-01 09:00N 09°25' W 079°56'0 0.0
2017-Sep-01 08:30N 09°25' W 079°56'0 0.0
2017-Sep-01 08:00N 09°25' W 079°56'0 0.0
2017-Sep-01 07:30N 09°25' W 079°56'0 0.0
2017-Sep-01 07:00N 09°25' W 079°56'0 0.1
2017-Sep-01 06:30N 09°25' W 079°56'0 0.2
2017-Sep-01 06:00N 09°25' W 079°56'2 3.4
2017-Sep-01 05:30N 09°26' W 079°55'4 7.9
2017-Sep-01 05:00N 09°30' W 079°54'510.5
2017-Sep-01 04:30N 09°35' W 079°53'  
2017-Aug-27 03:40N 29°56' W 090°22'  

Dump ship's entire track history